createdAt,value
2018-07-04T00:01:56.985Z,18.20
2018-07-04T00:04:36.353Z,18.10
2018-07-04T00:07:15.411Z,18.00
2018-07-04T00:09:54.378Z,17.90
2018-07-04T00:12:33.437Z,17.90
2018-07-04T00:15:12.589Z,17.90
2018-07-04T00:17:51.627Z,17.80
2018-07-04T00:20:36.289Z,17.80
2018-07-04T00:23:15.205Z,17.70
2018-07-04T00:25:55.766Z,17.60
2018-07-04T00:31:07.911Z,17.50
2018-07-04T00:33:47.229Z,17.70
2018-07-04T00:36:26.325Z,17.50
2018-07-04T00:39:06.100Z,17.50
2018-07-04T00:41:46.161Z,17.50
2018-07-04T00:44:25.154Z,17.50
2018-07-04T00:47:04.141Z,17.50
2018-07-04T00:49:43.245Z,17.50
2018-07-04T00:52:22.054Z,17.60
2018-07-04T00:55:01.677Z,17.70
2018-07-04T00:57:40.784Z,17.70
2018-07-04T01:00:19.649Z,17.70
2018-07-04T01:02:59.006Z,17.70
2018-07-04T01:05:38.097Z,17.70
2018-07-04T01:08:17.173Z,17.80
2018-07-04T01:10:56.118Z,17.80
2018-07-04T01:13:35.297Z,17.80
2018-07-04T01:16:14.415Z,17.80
2018-07-04T01:18:53.902Z,16.70
2018-07-04T01:21:33.133Z,17.60
2018-07-04T01:24:13.137Z,17.70
2018-07-04T01:26:52.077Z,17.60
2018-07-04T01:29:31.045Z,17.40
2018-07-04T01:32:10.078Z,17.40
2018-07-04T01:34:49.216Z,17.40
2018-07-04T01:37:28.379Z,17.20
2018-07-04T01:40:07.249Z,17.20
2018-07-04T01:42:46.373Z,17.20
2018-07-04T01:45:25.540Z,17.30
2018-07-04T01:48:04.613Z,17.20
2018-07-04T01:50:43.641Z,17.20
2018-07-04T01:53:23.477Z,17.10
2018-07-04T01:56:02.693Z,17.10
2018-07-04T01:58:41.690Z,17.00
2018-07-04T02:01:20.600Z,16.90
2018-07-04T02:04:00.413Z,16.90
2018-07-04T02:06:39.593Z,16.90
2018-07-04T02:09:18.725Z,16.80
2018-07-04T02:17:04.627Z,16.70
2018-07-04T02:19:43.672Z,16.70
2018-07-04T02:22:22.781Z,16.70
2018-07-04T02:25:01.897Z,16.70
2018-07-04T02:27:40.873Z,16.60
2018-07-04T02:30:19.994Z,16.50
2018-07-04T02:35:32.413Z,16.50
2018-07-04T02:38:11.466Z,16.40
2018-07-04T02:40:50.959Z,16.50
2018-07-04T02:43:30.113Z,16.50
2018-07-04T02:46:09.113Z,16.50
2018-07-04T02:48:49.205Z,16.50
2018-07-04T02:51:28.323Z,16.60
2018-07-04T02:54:08.278Z,16.60
2018-07-04T02:56:47.864Z,16.60
2018-07-04T02:59:27.966Z,16.60
2018-07-04T03:02:07.258Z,16.70
2018-07-04T03:04:46.214Z,16.50
2018-07-04T03:07:25.385Z,16.40
2018-07-04T03:10:04.380Z,16.40
2018-07-04T03:12:43.401Z,16.50
2018-07-04T03:15:22.446Z,16.50
2018-07-04T03:18:01.579Z,16.50
2018-07-04T03:20:40.480Z,16.50
2018-07-04T03:23:19.542Z,16.50
2018-07-04T03:25:58.551Z,16.50
2018-07-04T03:28:37.790Z,16.60
2018-07-04T03:31:16.939Z,16.60
2018-07-04T03:33:55.925Z,16.60
2018-07-04T03:36:34.918Z,16.60
2018-07-04T03:39:13.930Z,14.90
2018-07-04T03:41:52.929Z,16.60
2018-07-04T03:44:31.941Z,16.50
2018-07-04T03:47:11.957Z,16.50
2018-07-04T03:49:51.061Z,16.50
2018-07-04T03:52:30.084Z,16.50
2018-07-04T03:57:42.196Z,17.70
2018-07-04T04:00:21.434Z,16.60
2018-07-04T04:03:00.573Z,16.60
2018-07-04T04:05:39.686Z,16.70
2018-07-04T04:08:18.824Z,16.70
2018-07-04T04:10:57.965Z,16.70
2018-07-04T04:13:38.785Z,16.70
2018-07-04T04:16:17.721Z,16.80
2018-07-04T04:18:56.805Z,16.80
2018-07-04T04:21:35.893Z,16.90
2018-07-04T04:24:14.872Z,16.90
2018-07-04T04:26:53.889Z,16.90
2018-07-04T04:32:06.404Z,16.90
2018-07-04T04:34:45.460Z,17.00
2018-07-04T04:37:24.549Z,17.10
2018-07-04T04:40:03.697Z,17.20
2018-07-04T04:42:43.712Z,17.30
2018-07-04T04:45:23.581Z,17.40
2018-07-04T04:48:02.667Z,17.60
2018-07-04T04:50:41.685Z,17.60
2018-07-04T04:53:20.661Z,17.70
2018-07-04T04:55:59.693Z,17.80
2018-07-04T04:58:38.659Z,17.80
2018-07-04T05:01:17.776Z,17.80
2018-07-04T05:03:56.843Z,17.90
2018-07-04T05:06:35.776Z,17.80
2018-07-04T05:09:14.829Z,17.90
2018-07-04T05:11:53.806Z,17.90
2018-07-04T05:14:32.948Z,18.00
2018-07-04T05:17:11.937Z,18.10
2018-07-04T05:19:51.025Z,18.10
2018-07-04T05:22:29.990Z,18.10
2018-07-04T05:25:09.117Z,18.10
2018-07-04T05:27:49.069Z,17.90
2018-07-04T05:30:28.026Z,17.90
2018-07-04T05:33:07.785Z,17.90
2018-07-04T05:35:46.896Z,18.10
2018-07-04T05:40:59.193Z,18.20
2018-07-04T05:43:38.009Z,18.30
2018-07-04T05:46:17.037Z,18.30
2018-07-04T05:48:55.909Z,18.30
2018-07-04T05:54:08.305Z,18.50
2018-07-04T05:56:47.341Z,18.60
2018-07-04T05:59:26.440Z,18.60
2018-07-04T06:02:05.373Z,18.60
2018-07-04T06:04:44.308Z,18.60
2018-07-04T06:07:23.552Z,18.80
2018-07-04T06:10:03.565Z,18.90
2018-07-04T06:12:42.605Z,19.20
2018-07-04T06:15:21.551Z,19.50
2018-07-04T06:18:00.533Z,19.70
2018-07-04T06:20:39.418Z,20.20
2018-07-04T06:23:18.516Z,20.60
2018-07-04T06:25:57.505Z,21.20
2018-07-04T06:28:36.517Z,21.70
2018-07-04T06:31:15.669Z,22.20
2018-07-04T06:33:54.637Z,22.50
2018-07-04T06:36:33.555Z,23.00
2018-07-04T06:39:00.089Z,23.40
2018-07-04T06:41:26.627Z,23.90
2018-07-04T06:43:53.161Z,24.00
2018-07-04T06:46:19.689Z,24.00
2018-07-04T06:48:46.264Z,23.90
2018-07-04T06:51:12.777Z,23.80
2018-07-04T06:53:39.313Z,23.80
2018-07-04T06:56:05.943Z,23.60
2018-07-04T06:58:32.495Z,23.30
2018-07-04T07:00:59.041Z,23.30
2018-07-04T07:03:38.073Z,23.40
2018-07-04T07:06:16.970Z,23.30
2018-07-04T07:08:56.129Z,23.20
2018-07-04T07:11:35.101Z,23.30
2018-07-04T07:14:15.307Z,23.10
2018-07-04T07:16:54.374Z,23.00
2018-07-04T07:19:33.283Z,23.00
2018-07-04T07:22:12.246Z,23.00
2018-07-04T07:24:51.256Z,23.10
2018-07-04T07:27:30.407Z,23.30
2018-07-04T07:30:09.458Z,23.60
2018-07-04T07:32:48.533Z,23.80
2018-07-04T07:35:27.478Z,23.80
2018-07-04T07:38:06.494Z,23.80
2018-07-04T07:40:45.533Z,23.60
2018-07-04T07:43:24.704Z,23.40
2018-07-04T07:46:03.693Z,23.40
2018-07-04T07:48:42.901Z,23.60
2018-07-04T07:51:21.787Z,23.50
2018-07-04T07:54:00.983Z,23.40
2018-07-04T07:56:40.153Z,23.50
2018-07-04T07:59:19.224Z,23.60
2018-07-04T08:01:58.417Z,23.60
2018-07-04T08:04:37.312Z,23.60
2018-07-04T08:07:16.201Z,23.60
2018-07-04T08:09:55.429Z,23.80
2018-07-04T08:12:34.467Z,23.80
2018-07-04T08:15:13.525Z,23.50
2018-07-04T08:17:52.573Z,23.50
2018-07-04T08:20:31.739Z,23.60
2018-07-04T08:23:10.737Z,23.80
2018-07-04T08:25:49.918Z,24.10
2018-07-04T08:28:28.897Z,24.40
2018-07-04T08:31:07.857Z,24.40
2018-07-04T08:33:47.078Z,24.40
2018-07-04T08:36:26.208Z,24.60
2018-07-04T08:39:05.333Z,24.90
2018-07-04T08:41:44.369Z,25.00
2018-07-04T08:44:23.385Z,25.10
2018-07-04T08:47:02.409Z,24.90
2018-07-04T08:49:41.475Z,25.00
2018-07-04T08:52:20.597Z,25.20
2018-07-04T08:54:59.687Z,25.60
2018-07-04T08:57:38.625Z,25.90
2018-07-04T09:00:17.471Z,26.00
2018-07-04T09:02:56.701Z,26.00
2018-07-04T09:05:35.785Z,25.70
2018-07-04T09:08:14.991Z,25.70
2018-07-04T09:10:53.970Z,25.70
2018-07-04T09:13:33.152Z,25.70
2018-07-04T09:16:12.096Z,25.70
2018-07-04T09:18:51.280Z,25.80
2018-07-04T09:21:30.204Z,25.60
2018-07-04T09:24:09.216Z,25.60
2018-07-04T09:26:48.413Z,25.90
2018-07-04T09:29:27.481Z,26.00
2018-07-04T09:32:06.654Z,26.00
2018-07-04T09:34:45.713Z,26.20
2018-07-04T09:37:24.655Z,26.30
2018-07-04T09:40:03.593Z,26.50
2018-07-04T09:42:42.613Z,26.30
2018-07-04T09:45:21.558Z,26.00
2018-07-04T09:48:00.748Z,25.90
2018-07-04T09:50:39.716Z,25.70
2018-07-04T09:53:18.909Z,25.70
2018-07-04T09:55:57.925Z,25.70
2018-07-04T09:58:36.960Z,25.80
2018-07-04T10:01:22.320Z,25.50
2018-07-04T10:04:01.189Z,25.70
2018-07-04T10:06:40.547Z,25.90
2018-07-04T10:09:19.490Z,26.10
2018-07-04T10:11:58.502Z,26.20
2018-07-04T10:14:37.537Z,26.20
2018-07-04T10:17:16.578Z,26.30
2018-07-04T10:19:55.742Z,27.20
2018-07-04T10:22:34.698Z,26.80
2018-07-04T10:25:13.813Z,26.90
2018-07-04T10:27:52.772Z,26.80
2018-07-04T10:30:31.888Z,26.80
2018-07-04T10:33:10.777Z,26.90
2018-07-04T10:35:49.839Z,26.80
2018-07-04T10:38:28.810Z,26.80
2018-07-04T10:41:07.897Z,26.90
2018-07-04T10:43:46.849Z,26.90
2018-07-04T10:46:25.993Z,26.80
2018-07-04T10:49:04.913Z,26.90
2018-07-04T10:51:44.128Z,26.70
2018-07-04T10:54:23.193Z,26.60
2018-07-04T10:57:02.401Z,26.70
2018-07-04T10:59:41.486Z,26.90
2018-07-04T11:02:20.616Z,27.00
2018-07-04T11:04:59.688Z,27.00
2018-07-04T11:07:38.491Z,27.10
2018-07-04T11:10:17.577Z,27.50
2018-07-04T11:12:56.590Z,27.10
2018-07-04T11:15:35.582Z,26.90
2018-07-04T11:18:14.613Z,26.30
2018-07-04T11:20:53.733Z,26.00
2018-07-04T11:23:32.909Z,26.00
2018-07-04T11:26:11.893Z,26.30
2018-07-04T11:28:50.988Z,26.70
2018-07-04T11:31:29.937Z,27.00
2018-07-04T11:34:09.028Z,27.30
2018-07-04T11:36:48.079Z,27.40
2018-07-04T11:39:27.036Z,27.20
2018-07-04T11:42:06.048Z,27.20
2018-07-04T11:44:45.146Z,27.10
2018-07-04T11:47:11.662Z,26.90
2018-07-04T11:49:38.253Z,26.80
2018-07-04T11:52:04.746Z,26.40
2018-07-04T11:54:31.277Z,26.30
2018-07-04T11:56:57.846Z,26.10
2018-07-04T11:59:24.352Z,26.00
2018-07-04T12:01:50.897Z,25.90
2018-07-04T12:04:29.985Z,25.80
2018-07-04T12:07:09.109Z,25.80
2018-07-04T12:09:37.895Z,25.70
2018-07-04T12:12:04.413Z,25.70
2018-07-04T12:14:31.286Z,25.70
2018-07-04T12:16:58.392Z,25.60
2018-07-04T12:19:25.187Z,25.50
2018-07-04T12:21:51.705Z,25.70
2018-07-04T12:24:18.241Z,25.80
2018-07-04T12:26:44.805Z,25.80
2018-07-04T12:29:11.533Z,25.60
2018-07-04T12:31:38.768Z,25.50
2018-07-04T12:34:05.273Z,25.40
2018-07-04T12:36:32.167Z,25.40
2018-07-04T12:38:58.681Z,25.60
2018-07-04T12:41:25.213Z,26.20
2018-07-04T12:43:51.997Z,26.90
2018-07-04T12:46:18.515Z,27.70
2018-07-04T12:48:45.058Z,28.90
2018-07-04T12:51:11.653Z,29.90
2018-07-04T12:53:38.125Z,31.20
2018-07-04T12:56:17.101Z,31.40
2018-07-04T12:58:56.065Z,31.40
2018-07-04T13:01:34.967Z,30.50
2018-07-04T13:04:14.157Z,29.50
2018-07-04T13:06:53.045Z,29.20
2018-07-04T13:09:31.988Z,28.90
2018-07-04T13:12:11.304Z,29.00
2018-07-04T13:14:50.422Z,29.20
2018-07-04T13:17:29.297Z,29.10
2018-07-04T13:20:08.345Z,29.50
2018-07-04T13:22:47.337Z,29.00
2018-07-04T13:25:26.496Z,28.60
2018-07-04T13:28:05.509Z,28.00
2018-07-04T13:30:44.531Z,27.90
2018-07-04T13:33:23.450Z,27.80
2018-07-04T13:36:02.565Z,27.90
2018-07-04T13:38:41.625Z,28.30
2018-07-04T13:41:20.617Z,28.40
2018-07-04T13:43:59.869Z,28.30
2018-07-04T13:46:38.779Z,28.00
2018-07-04T13:49:18.829Z,27.70
2018-07-04T13:51:57.865Z,28.00
2018-07-04T13:54:36.778Z,28.60
2018-07-04T13:57:15.749Z,29.20
2018-07-04T13:59:54.748Z,29.20
2018-07-04T14:02:33.791Z,28.60
2018-07-04T14:05:12.848Z,28.00
2018-07-04T14:07:51.917Z,27.60
2018-07-04T14:10:30.913Z,27.30
2018-07-04T14:13:09.772Z,26.70
2018-07-04T14:15:48.736Z,26.40
2018-07-04T14:18:27.600Z,26.10
2018-07-04T14:21:06.589Z,25.70
2018-07-04T14:23:45.690Z,25.40
2018-07-04T14:26:24.753Z,25.10
2018-07-04T14:29:03.750Z,24.90
2018-07-04T14:31:42.633Z,24.90
2018-07-04T14:34:21.677Z,24.70
2018-07-04T14:37:00.795Z,24.40
2018-07-04T14:39:39.802Z,24.50
2018-07-04T14:42:18.992Z,24.30
2018-07-04T14:44:58.124Z,24.20
2018-07-04T14:47:37.037Z,24.40
2018-07-04T14:50:16.049Z,24.50
2018-07-04T14:52:55.045Z,25.10
2018-07-04T14:55:34.021Z,25.30
2018-07-04T14:58:13.079Z,25.60
2018-07-04T15:00:52.090Z,26.00
2018-07-04T15:03:31.013Z,26.60
2018-07-04T15:06:10.962Z,26.60
2018-07-04T15:08:50.016Z,26.70
2018-07-04T15:11:29.168Z,27.10
2018-07-04T15:14:08.153Z,27.30
2018-07-04T15:16:47.177Z,27.60
2018-07-04T15:19:26.240Z,27.70
2018-07-04T15:22:05.347Z,27.50
2018-07-04T15:24:44.393Z,27.10
2018-07-04T15:27:23.383Z,26.90
2018-07-04T15:30:02.574Z,26.40
2018-07-04T15:35:14.773Z,25.80
2018-07-04T15:37:53.650Z,25.50
2018-07-04T15:40:32.726Z,25.40
2018-07-04T15:43:11.629Z,25.60
2018-07-04T15:45:50.643Z,25.80
2018-07-04T15:48:29.660Z,26.00
2018-07-04T15:51:08.525Z,26.30
2018-07-04T15:53:47.512Z,26.90
2018-07-04T15:56:26.383Z,27.80
2018-07-04T15:59:05.404Z,29.50
2018-07-04T16:01:44.492Z,31.20
2018-07-04T16:04:23.357Z,32.30
2018-07-04T16:07:02.334Z,33.20
2018-07-04T16:09:41.287Z,33.90
2018-07-04T16:12:20.229Z,33.90
2018-07-04T16:14:59.237Z,34.40
2018-07-04T16:17:38.257Z,33.90
2018-07-04T16:20:17.297Z,32.40
2018-07-04T16:22:56.426Z,30.90
2018-07-04T16:25:35.348Z,29.60
2018-07-04T16:28:14.303Z,28.80
2018-07-04T16:30:53.941Z,28.40
2018-07-04T16:33:32.968Z,28.30
2018-07-04T16:36:12.021Z,28.90
2018-07-04T16:38:51.147Z,29.60
2018-07-04T16:41:30.113Z,30.10
2018-07-04T16:44:09.118Z,31.00
2018-07-04T16:46:48.127Z,32.00
2018-07-04T16:49:27.269Z,32.70
2018-07-04T16:52:06.278Z,32.70
2018-07-04T16:54:45.433Z,32.90
2018-07-04T16:57:24.523Z,33.10
2018-07-04T17:00:03.469Z,33.50
2018-07-04T17:02:42.628Z,34.40
2018-07-04T17:05:21.754Z,35.10
2018-07-04T17:08:00.721Z,34.90
2018-07-04T17:10:39.587Z,34.80
2018-07-04T17:13:18.604Z,34.20
2018-07-04T17:15:57.688Z,32.90
2018-07-04T17:18:36.639Z,31.80
2018-07-04T17:21:15.547Z,31.10
2018-07-04T17:23:54.537Z,29.80
2018-07-04T17:26:33.496Z,28.70
2018-07-04T17:29:12.357Z,27.80
2018-07-04T17:31:51.446Z,27.50
2018-07-04T17:34:30.299Z,27.20
2018-07-04T17:37:09.309Z,27.00
2018-07-04T17:39:48.327Z,27.00
2018-07-04T17:42:27.316Z,27.00
2018-07-04T17:45:06.436Z,26.60
2018-07-04T17:50:23.665Z,26.00
2018-07-04T17:53:02.724Z,25.10
2018-07-04T17:55:41.646Z,24.90
2018-07-04T17:58:20.760Z,24.80
2018-07-04T18:01:00.808Z,24.70
2018-07-04T18:03:39.872Z,24.60
2018-07-04T18:06:18.980Z,24.50
2018-07-04T18:08:57.994Z,24.40
2018-07-04T18:11:37.053Z,24.20
2018-07-04T18:14:16.182Z,24.00
2018-07-04T18:16:55.253Z,23.70
2018-07-04T18:19:34.321Z,23.40
2018-07-04T18:22:13.385Z,23.10
2018-07-04T18:24:52.284Z,22.70
2018-07-04T18:27:31.385Z,22.40
2018-07-04T18:30:10.537Z,22.30
2018-07-04T18:32:49.819Z,22.40
2018-07-04T18:35:28.893Z,22.50
2018-07-04T18:38:07.935Z,22.60
2018-07-04T18:40:46.965Z,22.70
2018-07-04T18:43:25.917Z,22.60
2018-07-04T18:46:04.901Z,22.50
2018-07-04T18:48:43.960Z,22.20
2018-07-04T18:51:22.993Z,22.00
2018-07-04T18:54:02.124Z,22.00
2018-07-04T18:56:41.241Z,22.00
2018-07-04T18:59:20.350Z,21.90
2018-07-04T19:01:59.506Z,21.70
2018-07-04T19:04:38.409Z,21.40
2018-07-04T19:07:17.442Z,20.90
2018-07-04T19:09:56.563Z,20.50
2018-07-04T19:12:35.618Z,20.10
2018-07-04T19:15:14.853Z,19.90
2018-07-04T19:17:53.921Z,19.80
2018-07-04T19:20:33.142Z,19.50
2018-07-04T19:23:12.157Z,19.40
2018-07-04T19:25:51.121Z,19.40
2018-07-04T19:28:30.189Z,19.20
2018-07-04T19:31:09.321Z,19.30
2018-07-04T19:33:48.301Z,19.30
2018-07-04T19:36:28.317Z,19.40
2018-07-04T19:39:07.473Z,19.40
2018-07-04T19:41:46.556Z,19.50
2018-07-04T19:44:25.544Z,19.50
2018-07-04T19:47:04.504Z,19.60
2018-07-04T19:49:43.664Z,19.50
2018-07-04T19:52:22.726Z,19.40
2018-07-04T19:55:02.021Z,19.30
2018-07-04T19:57:41.121Z,19.10
2018-07-04T20:00:20.237Z,19.00
2018-07-04T20:02:59.305Z,18.60
2018-07-04T20:05:38.325Z,18.40
2018-07-04T20:08:17.476Z,18.20
2018-07-04T20:10:56.397Z,18.20
2018-07-04T20:13:35.420Z,18.40
2018-07-04T20:16:14.571Z,18.30
2018-07-04T20:18:53.555Z,18.40
2018-07-04T20:21:32.600Z,18.40
2018-07-04T20:24:11.546Z,18.50
2018-07-04T20:26:50.762Z,18.40
2018-07-04T20:29:29.669Z,18.40
2018-07-04T20:32:08.762Z,18.50
2018-07-04T20:34:47.737Z,18.50
2018-07-04T20:37:26.820Z,18.50
2018-07-04T20:40:05.702Z,18.40
2018-07-04T20:42:44.748Z,18.30
2018-07-04T20:45:23.521Z,18.10
2018-07-04T20:48:02.649Z,17.90
2018-07-04T20:50:41.681Z,17.90
2018-07-04T20:53:20.765Z,17.70
2018-07-04T20:55:59.720Z,17.50
2018-07-04T20:58:38.901Z,17.40
2018-07-04T21:01:17.808Z,17.50
2018-07-04T21:03:56.813Z,17.30
2018-07-04T21:06:35.923Z,17.30
2018-07-04T21:09:14.886Z,17.30
2018-07-04T21:11:53.748Z,17.40
2018-07-04T21:14:32.803Z,17.40
2018-07-04T21:17:11.649Z,17.40
2018-07-04T21:19:50.740Z,17.40
2018-07-04T21:22:29.865Z,17.50
2018-07-04T21:25:08.914Z,17.50
2018-07-04T21:27:48.930Z,17.50
2018-07-04T21:30:28.949Z,17.60
2018-07-04T21:33:07.961Z,17.60
2018-07-04T21:35:47.162Z,17.50
2018-07-04T21:38:26.281Z,17.50
2018-07-04T21:41:05.403Z,17.30
2018-07-04T21:43:44.552Z,17.00
2018-07-04T21:46:23.733Z,17.00
2018-07-04T21:49:02.830Z,17.00
2018-07-04T21:51:41.879Z,17.10
2018-07-04T21:56:54.168Z,17.10
2018-07-04T21:59:33.113Z,17.10
2018-07-04T22:02:12.243Z,17.00
2018-07-04T22:04:51.345Z,17.10
2018-07-04T22:07:30.444Z,17.10
2018-07-04T22:10:09.466Z,17.10
2018-07-04T22:12:48.653Z,17.00
2018-07-04T22:15:27.789Z,16.90
2018-07-04T22:20:40.089Z,16.80
2018-07-04T22:23:19.789Z,16.90
2018-07-04T22:25:58.769Z,16.80
2018-07-04T22:28:37.822Z,16.80
2018-07-04T22:31:16.790Z,16.70
2018-07-04T22:33:55.729Z,16.70
2018-07-04T22:36:34.753Z,16.70
2018-07-04T22:39:13.920Z,16.80
2018-07-04T22:41:53.181Z,16.70
2018-07-04T22:44:32.144Z,16.60
2018-07-04T22:47:11.413Z,16.70
2018-07-04T22:49:50.445Z,16.60
2018-07-04T22:52:29.513Z,16.60
2018-07-04T22:55:08.411Z,16.70
2018-07-04T23:00:20.821Z,16.60
2018-07-04T23:02:59.886Z,16.70
2018-07-04T23:05:38.758Z,16.70
2018-07-04T23:08:17.872Z,16.80
2018-07-04T23:10:56.933Z,16.80
2018-07-04T23:13:36.000Z,16.80
2018-07-04T23:16:15.062Z,16.90
2018-07-04T23:18:54.081Z,16.90
2018-07-04T23:21:33.033Z,16.90
2018-07-04T23:24:12.101Z,16.90
2018-07-04T23:26:51.209Z,16.80
2018-07-04T23:29:30.134Z,16.70
2018-07-04T23:32:09.186Z,16.70
2018-07-04T23:34:48.269Z,16.70
2018-07-04T23:37:27.341Z,16.70
2018-07-04T23:40:06.455Z,16.70
2018-07-04T23:42:45.481Z,16.70
2018-07-04T23:45:24.333Z,16.70
2018-07-04T23:48:03.403Z,16.70
2018-07-04T23:50:42.348Z,16.60
2018-07-04T23:53:22.282Z,16.60
2018-07-04T23:56:01.348Z,16.50
2018-07-04T23:58:40.390Z,16.40
